sensor_id;sensor_type;location;lat;lon;timestamp;P1;durP1;ratioP1;P2;durP2;ratioP2
49460;SDS011;35355;49.198;-0.368;2023-02-28T00:01:01;4.85;;;2.05;;
49460;SDS011;35355;49.198;-0.368;2023-02-28T00:03:26;8.57;;;2.10;;
49460;SDS011;35355;49.198;-0.368;2023-02-28T00:05:51;3.55;;;2.08;;
49460;SDS011;35355;49.198;-0.368;2023-02-28T00:08:17;6.68;;;2.60;;
49460;SDS011;35355;49.198;-0.368;2023-02-28T00:10:42;7.40;;;2.00;;
49460;SDS011;35355;49.198;-0.368;2023-02-28T00:13:07;4.97;;;2.15;;
49460;SDS011;35355;49.198;-0.368;2023-02-28T00:15:33;5.05;;;2.38;;
49460;SDS011;35355;49.198;-0.368;2023-02-28T00:17:58;8.88;;;2.30;;
49460;SDS011;35355;49.198;-0.368;2023-02-28T00:20:24;3.63;;;1.92;;
49460;SDS011;35355;49.198;-0.368;2023-02-28T00:22:50;6.47;;;2.97;;
49460;SDS011;35355;49.198;-0.368;2023-02-28T00:25:18;5.75;;;2.15;;
49460;SDS011;35355;49.198;-0.368;2023-02-28T00:27:45;5.13;;;2.35;;
49460;SDS011;35355;49.198;-0.368;2023-02-28T00:30:13;5.25;;;2.40;;
49460;SDS011;35355;49.198;-0.368;2023-02-28T00:32:40;9.50;;;3.40;;
49460;SDS011;35355;49.198;-0.368;2023-02-28T00:35:06;4.90;;;2.45;;
49460;SDS011;35355;49.198;-0.368;2023-02-28T00:37:33;6.50;;;2.95;;
49460;SDS011;35355;49.198;-0.368;2023-02-28T00:39:58;6.07;;;2.58;;
49460;SDS011;35355;49.198;-0.368;2023-02-28T00:42:24;5.30;;;2.58;;
49460;SDS011;35355;49.198;-0.368;2023-02-28T00:44:49;7.28;;;3.05;;
49460;SDS011;35355;49.198;-0.368;2023-02-28T00:47:15;5.72;;;2.83;;
49460;SDS011;35355;49.198;-0.368;2023-02-28T00:49:41;6.03;;;2.88;;
49460;SDS011;35355;49.198;-0.368;2023-02-28T00:52:06;7.07;;;3.17;;
49460;SDS011;35355;49.198;-0.368;2023-02-28T00:54:31;8.25;;;2.78;;
49460;SDS011;35355;49.198;-0.368;2023-02-28T00:56:57;8.02;;;3.55;;
49460;SDS011;35355;49.198;-0.368;2023-02-28T00:59:22;6.57;;;2.92;;
49460;SDS011;35355;49.198;-0.368;2023-02-28T01:01:48;7.07;;;3.22;;
49460;SDS011;35355;49.198;-0.368;2023-02-28T01:04:13;6.25;;;3.20;;
49460;SDS011;35355;49.198;-0.368;2023-02-28T01:06:39;7.65;;;3.42;;
49460;SDS011;35355;49.198;-0.368;2023-02-28T01:09:05;6.68;;;3.20;;
49460;SDS011;35355;49.198;-0.368;2023-02-28T01:11:32;6.72;;;3.30;;
49460;SDS011;35355;49.198;-0.368;2023-02-28T01:13:58;8.27;;;3.45;;
49460;SDS011;35355;49.198;-0.368;2023-02-28T01:16:24;6.15;;;2.85;;
49460;SDS011;35355;49.198;-0.368;2023-02-28T01:18:49;7.35;;;3.47;;
49460;SDS011;35355;49.198;-0.368;2023-02-28T01:21:16;6.78;;;3.70;;
49460;SDS011;35355;49.198;-0.368;2023-02-28T01:23:42;15.15;;;5.07;;
49460;SDS011;35355;49.198;-0.368;2023-02-28T01:26:09;12.85;;;4.28;;
49460;SDS011;35355;49.198;-0.368;2023-02-28T01:28:37;12.23;;;3.85;;
49460;SDS011;35355;49.198;-0.368;2023-02-28T01:31:02;7.18;;;3.40;;
49460;SDS011;35355;49.198;-0.368;2023-02-28T01:33:28;5.82;;;3.80;;
49460;SDS011;35355;49.198;-0.368;2023-02-28T01:36:00;9.38;;;4.10;;
49460;SDS011;35355;49.198;-0.368;2023-02-28T01:38:27;7.25;;;3.92;;
49460;SDS011;35355;49.198;-0.368;2023-02-28T01:40:53;7.75;;;3.40;;
49460;SDS011;35355;49.198;-0.368;2023-02-28T01:43:25;6.82;;;3.42;;
49460;SDS011;35355;49.198;-0.368;2023-02-28T01:45:53;7.63;;;3.95;;
49460;SDS011;35355;49.198;-0.368;2023-02-28T01:48:19;6.72;;;3.33;;
49460;SDS011;35355;49.198;-0.368;2023-02-28T01:50:47;6.55;;;3.17;;
49460;SDS011;35355;49.198;-0.368;2023-02-28T01:53:15;10.30;;;4.13;;
49460;SDS011;35355;49.198;-0.368;2023-02-28T01:55:45;10.48;;;3.97;;
49460;SDS011;35355;49.198;-0.368;2023-02-28T01:58:14;4.68;;;3.08;;
49460;SDS011;35355;49.198;-0.368;2023-02-28T02:00:39;10.60;;;3.63;;
49460;SDS011;35355;49.198;-0.368;2023-02-28T02:03:12;10.93;;;3.55;;
49460;SDS011;35355;49.198;-0.368;2023-02-28T02:05:40;6.07;;;3.63;;
49460;SDS011;35355;49.198;-0.368;2023-02-28T02:08:08;5.05;;;3.17;;
49460;SDS011;35355;49.198;-0.368;2023-02-28T02:10:58;8.32;;;3.72;;
49460;SDS011;35355;49.198;-0.368;2023-02-28T02:19:00;8.80;;;3.70;;
49460;SDS011;35355;49.198;-0.368;2023-02-28T02:24:29;8.02;;;3.75;;
49460;SDS011;35355;49.198;-0.368;2023-02-28T02:27:18;9.10;;;4.00;;
49460;SDS011;35355;49.198;-0.368;2023-02-28T02:33:03;7.05;;;3.38;;
49460;SDS011;35355;49.198;-0.368;2023-02-28T02:35:31;7.18;;;3.80;;
49460;SDS011;35355;49.198;-0.368;2023-02-28T02:38:20;6.90;;;3.63;;
49460;SDS011;35355;49.198;-0.368;2023-02-28T02:46:29;7.05;;;3.65;;
49460;SDS011;35355;49.198;-0.368;2023-02-28T02:48:59;7.10;;;4.07;;
49460;SDS011;35355;49.198;-0.368;2023-02-28T02:51:28;12.10;;;4.32;;
49460;SDS011;35355;49.198;-0.368;2023-02-28T02:53:59;7.45;;;3.60;;
49460;SDS011;35355;49.198;-0.368;2023-02-28T02:56:30;8.63;;;4.05;;
49460;SDS011;35355;49.198;-0.368;2023-02-28T02:59:00;8.35;;;4.18;;
49460;SDS011;35355;49.198;-0.368;2023-02-28T03:01:32;10.38;;;4.50;;
49460;SDS011;35355;49.198;-0.368;2023-02-28T03:04:01;15.93;;;5.65;;
49460;SDS011;35355;49.198;-0.368;2023-02-28T03:06:30;8.95;;;3.78;;
49460;SDS011;35355;49.198;-0.368;2023-02-28T03:08:56;8.77;;;4.25;;
49460;SDS011;35355;49.198;-0.368;2023-02-28T03:11:22;6.03;;;3.70;;
49460;SDS011;35355;49.198;-0.368;2023-02-28T03:14:00;8.30;;;3.67;;
49460;SDS011;35355;49.198;-0.368;2023-02-28T03:24:53;7.32;;;4.18;;
49460;SDS011;35355;49.198;-0.368;2023-02-28T03:27:24;13.95;;;4.60;;
49460;SDS011;35355;49.198;-0.368;2023-02-28T03:30:04;7.80;;;4.60;;
49460;SDS011;35355;49.198;-0.368;2023-02-28T03:32:49;10.02;;;5.28;;
49460;SDS011;35355;49.198;-0.368;2023-02-28T03:35:27;10.23;;;5.95;;
49460;SDS011;35355;49.198;-0.368;2023-02-28T03:38:00;8.98;;;5.50;;
49460;SDS011;35355;49.198;-0.368;2023-02-28T03:43:07;11.50;;;5.60;;
49460;SDS011;35355;49.198;-0.368;2023-02-28T03:45:37;12.98;;;6.03;;
49460;SDS011;35355;49.198;-0.368;2023-02-28T03:50:38;14.02;;;6.63;;
49460;SDS011;35355;49.198;-0.368;2023-02-28T03:53:14;12.15;;;6.25;;
49460;SDS011;35355;49.198;-0.368;2023-02-28T03:55:48;10.57;;;6.70;;
49460;SDS011;35355;49.198;-0.368;2023-02-28T04:01:07;14.77;;;5.90;;
49460;SDS011;35355;49.198;-0.368;2023-02-28T04:03:37;20.13;;;7.38;;
49460;SDS011;35355;49.198;-0.368;2023-02-28T04:06:05;11.85;;;6.25;;
49460;SDS011;35355;49.198;-0.368;2023-02-28T04:08:37;11.38;;;7.13;;
49460;SDS011;35355;49.198;-0.368;2023-02-28T04:11:20;13.95;;;7.55;;
49460;SDS011;35355;49.198;-0.368;2023-02-28T04:16:22;14.63;;;7.40;;
49460;SDS011;35355;49.198;-0.368;2023-02-28T04:18:48;13.40;;;7.00;;
49460;SDS011;35355;49.198;-0.368;2023-02-28T04:21:13;14.15;;;8.30;;
49460;SDS011;35355;49.198;-0.368;2023-02-28T04:23:39;18.08;;;7.35;;
49460;SDS011;35355;49.198;-0.368;2023-02-28T04:26:04;21.48;;;7.88;;
49460;SDS011;35355;49.198;-0.368;2023-02-28T04:28:30;18.23;;;7.90;;
49460;SDS011;35355;49.198;-0.368;2023-02-28T04:30:57;16.90;;;8.77;;
49460;SDS011;35355;49.198;-0.368;2023-02-28T04:33:23;14.75;;;8.13;;
49460;SDS011;35355;49.198;-0.368;2023-02-28T04:35:57;13.73;;;7.32;;
49460;SDS011;35355;49.198;-0.368;2023-02-28T04:38:23;16.23;;;8.40;;
49460;SDS011;35355;49.198;-0.368;2023-02-28T04:40:49;15.82;;;8.40;;
49460;SDS011;35355;49.198;-0.368;2023-02-28T04:43:14;15.35;;;7.78;;
49460;SDS011;35355;49.198;-0.368;2023-02-28T04:45:40;16.02;;;8.23;;
49460;SDS011;35355;49.198;-0.368;2023-02-28T04:48:05;14.15;;;7.07;;
49460;SDS011;35355;49.198;-0.368;2023-02-28T04:50:30;17.58;;;8.23;;
49460;SDS011;35355;49.198;-0.368;2023-02-28T04:52:56;16.33;;;9.27;;
49460;SDS011;35355;49.198;-0.368;2023-02-28T04:55:21;12.23;;;6.90;;
49460;SDS011;35355;49.198;-0.368;2023-02-28T04:57:47;14.38;;;7.78;;
49460;SDS011;35355;49.198;-0.368;2023-02-28T05:00:12;14.48;;;7.80;;
49460;SDS011;35355;49.198;-0.368;2023-02-28T05:02:40;19.38;;;7.22;;
49460;SDS011;35355;49.198;-0.368;2023-02-28T05:05:05;13.45;;;7.20;;
49460;SDS011;35355;49.198;-0.368;2023-02-28T05:07:31;14.90;;;7.97;;
49460;SDS011;35355;49.198;-0.368;2023-02-28T05:09:56;16.45;;;7.90;;
49460;SDS011;35355;49.198;-0.368;2023-02-28T05:12:21;13.75;;;8.60;;
49460;SDS011;35355;49.198;-0.368;2023-02-28T05:14:47;16.42;;;9.10;;
49460;SDS011;35355;49.198;-0.368;2023-02-28T05:17:12;16.67;;;7.53;;
49460;SDS011;35355;49.198;-0.368;2023-02-28T05:19:37;13.15;;;8.00;;
49460;SDS011;35355;49.198;-0.368;2023-02-28T05:22:03;16.15;;;7.68;;
49460;SDS011;35355;49.198;-0.368;2023-02-28T05:24:28;18.10;;;8.43;;
49460;SDS011;35355;49.198;-0.368;2023-02-28T05:26:54;18.45;;;7.32;;
49460;SDS011;35355;49.198;-0.368;2023-02-28T05:29:20;13.90;;;8.05;;
49460;SDS011;35355;49.198;-0.368;2023-02-28T05:51:37;17.85;;;7.93;;
49460;SDS011;35355;49.198;-0.368;2023-02-28T05:54:04;17.08;;;8.45;;
49460;SDS011;35355;49.198;-0.368;2023-02-28T05:56:31;15.80;;;8.50;;
49460;SDS011;35355;49.198;-0.368;2023-02-28T05:58:56;18.00;;;8.23;;
49460;SDS011;35355;49.198;-0.368;2023-02-28T06:03:49;14.82;;;8.35;;
49460;SDS011;35355;49.198;-0.368;2023-02-28T06:06:15;17.63;;;8.13;;
49460;SDS011;35355;49.198;-0.368;2023-02-28T06:08:41;14.98;;;8.85;;
49460;SDS011;35355;49.198;-0.368;2023-02-28T06:11:08;16.17;;;8.57;;
49460;SDS011;35355;49.198;-0.368;2023-02-28T06:13:33;13.38;;;8.38;;
49460;SDS011;35355;49.198;-0.368;2023-02-28T06:16:02;16.23;;;8.70;;
49460;SDS011;35355;49.198;-0.368;2023-02-28T06:18:27;16.65;;;8.32;;
49460;SDS011;35355;49.198;-0.368;2023-02-28T06:20:53;18.42;;;10.27;;
49460;SDS011;35355;49.198;-0.368;2023-02-28T06:23:19;18.85;;;9.38;;
49460;SDS011;35355;49.198;-0.368;2023-02-28T06:25:45;14.40;;;8.25;;
49460;SDS011;35355;49.198;-0.368;2023-02-28T06:28:11;18.50;;;8.80;;
49460;SDS011;35355;49.198;-0.368;2023-02-28T06:30:37;21.70;;;9.27;;
49460;SDS011;35355;49.198;-0.368;2023-02-28T06:33:03;20.17;;;9.38;;
49460;SDS011;35355;49.198;-0.368;2023-02-28T06:35:28;19.35;;;8.95;;
49460;SDS011;35355;49.198;-0.368;2023-02-28T06:37:54;19.35;;;9.55;;
49460;SDS011;35355;49.198;-0.368;2023-02-28T06:40:20;18.85;;;9.38;;
49460;SDS011;35355;49.198;-0.368;2023-02-28T06:42:45;17.90;;;8.88;;
49460;SDS011;35355;49.198;-0.368;2023-02-28T06:45:11;16.52;;;8.52;;
49460;SDS011;35355;49.198;-0.368;2023-02-28T06:47:37;15.80;;;9.20;;
49460;SDS011;35355;49.198;-0.368;2023-02-28T06:50:05;20.75;;;9.88;;
49460;SDS011;35355;49.198;-0.368;2023-02-28T06:52:31;16.77;;;9.20;;
49460;SDS011;35355;49.198;-0.368;2023-02-28T06:54:57;19.75;;;10.15;;
49460;SDS011;35355;49.198;-0.368;2023-02-28T06:57:29;17.83;;;9.02;;
49460;SDS011;35355;49.198;-0.368;2023-02-28T07:00:03;19.45;;;9.75;;
49460;SDS011;35355;49.198;-0.368;2023-02-28T07:02:32;22.42;;;9.60;;
49460;SDS011;35355;49.198;-0.368;2023-02-28T07:04:58;20.05;;;9.18;;
49460;SDS011;35355;49.198;-0.368;2023-02-28T07:07:23;16.88;;;8.20;;
49460;SDS011;35355;49.198;-0.368;2023-02-28T07:09:48;20.25;;;9.27;;
49460;SDS011;35355;49.198;-0.368;2023-02-28T07:12:14;22.75;;;9.60;;
49460;SDS011;35355;49.198;-0.368;2023-02-28T07:14:39;22.10;;;9.15;;
49460;SDS011;35355;49.198;-0.368;2023-02-28T07:17:06;16.02;;;8.82;;
49460;SDS011;35355;49.198;-0.368;2023-02-28T07:19:33;16.48;;;8.85;;
49460;SDS011;35355;49.198;-0.368;2023-02-28T07:21:58;22.92;;;9.68;;
49460;SDS011;35355;49.198;-0.368;2023-02-28T07:24:24;18.50;;;8.10;;
49460;SDS011;35355;49.198;-0.368;2023-02-28T07:26:53;24.45;;;9.25;;
49460;SDS011;35355;49.198;-0.368;2023-02-28T07:29:18;19.67;;;9.57;;
49460;SDS011;35355;49.198;-0.368;2023-02-28T07:31:43;17.58;;;9.10;;
49460;SDS011;35355;49.198;-0.368;2023-02-28T07:34:09;17.73;;;8.50;;
49460;SDS011;35355;49.198;-0.368;2023-02-28T07:36:34;16.52;;;8.35;;
49460;SDS011;35355;49.198;-0.368;2023-02-28T07:38:59;15.48;;;9.25;;
49460;SDS011;35355;49.198;-0.368;2023-02-28T07:41:25;16.63;;;9.20;;
49460;SDS011;35355;49.198;-0.368;2023-02-28T07:43:53;15.32;;;8.75;;
49460;SDS011;35355;49.198;-0.368;2023-02-28T07:46:20;17.95;;;8.68;;
49460;SDS011;35355;49.198;-0.368;2023-02-28T07:48:46;17.33;;;8.63;;
49460;SDS011;35355;49.198;-0.368;2023-02-28T07:51:11;17.25;;;8.80;;
49460;SDS011;35355;49.198;-0.368;2023-02-28T07:53:37;16.92;;;8.75;;
49460;SDS011;35355;49.198;-0.368;2023-02-28T07:56:02;15.05;;;8.73;;
49460;SDS011;35355;49.198;-0.368;2023-02-28T07:58:29;18.00;;;8.57;;
49460;SDS011;35355;49.198;-0.368;2023-02-28T08:00:55;17.75;;;7.82;;
49460;SDS011;35355;49.198;-0.368;2023-02-28T08:03:21;16.55;;;9.00;;
49460;SDS011;35355;49.198;-0.368;2023-02-28T08:05:48;15.15;;;8.85;;
49460;SDS011;35355;49.198;-0.368;2023-02-28T08:08:14;12.90;;;7.40;;
49460;SDS011;35355;49.198;-0.368;2023-02-28T08:10:40;19.05;;;8.73;;
49460;SDS011;35355;49.198;-0.368;2023-02-28T08:13:06;15.13;;;8.68;;
49460;SDS011;35355;49.198;-0.368;2023-02-28T08:15:32;13.30;;;7.82;;
49460;SDS011;35355;49.198;-0.368;2023-02-28T08:17:57;15.38;;;8.05;;
49460;SDS011;35355;49.198;-0.368;2023-02-28T08:20:23;14.73;;;7.53;;
49460;SDS011;35355;49.198;-0.368;2023-02-28T08:22:49;13.20;;;7.40;;
49460;SDS011;35355;49.198;-0.368;2023-02-28T08:25:15;15.57;;;8.55;;
49460;SDS011;35355;49.198;-0.368;2023-02-28T08:27:40;16.20;;;8.38;;
49460;SDS011;35355;49.198;-0.368;2023-02-28T08:30:06;13.65;;;7.97;;
49460;SDS011;35355;49.198;-0.368;2023-02-28T08:32:32;17.58;;;8.10;;
49460;SDS011;35355;49.198;-0.368;2023-02-28T08:34:58;16.08;;;8.18;;
49460;SDS011;35355;49.198;-0.368;2023-02-28T08:37:23;14.50;;;6.70;;
49460;SDS011;35355;49.198;-0.368;2023-02-28T08:39:49;16.48;;;7.30;;
49460;SDS011;35355;49.198;-0.368;2023-02-28T08:42:14;15.10;;;7.00;;
49460;SDS011;35355;49.198;-0.368;2023-02-28T08:44:40;13.88;;;7.30;;
49460;SDS011;35355;49.198;-0.368;2023-02-28T08:47:05;12.60;;;7.43;;
49460;SDS011;35355;49.198;-0.368;2023-02-28T08:49:31;14.35;;;7.43;;
49460;SDS011;35355;49.198;-0.368;2023-02-28T08:51:56;14.95;;;7.07;;
49460;SDS011;35355;49.198;-0.368;2023-02-28T08:54:22;12.32;;;6.18;;
49460;SDS011;35355;49.198;-0.368;2023-02-28T08:56:48;15.65;;;6.60;;
49460;SDS011;35355;49.198;-0.368;2023-02-28T08:59:13;11.65;;;6.15;;
49460;SDS011;35355;49.198;-0.368;2023-02-28T09:01:39;12.00;;;6.05;;
49460;SDS011;35355;49.198;-0.368;2023-02-28T09:04:06;11.75;;;6.35;;
49460;SDS011;35355;49.198;-0.368;2023-02-28T09:06:33;17.70;;;7.57;;
49460;SDS011;35355;49.198;-0.368;2023-02-28T09:08:59;11.48;;;6.10;;
49460;SDS011;35355;49.198;-0.368;2023-02-28T09:11:26;10.85;;;5.68;;
49460;SDS011;35355;49.198;-0.368;2023-02-28T09:13:52;13.82;;;4.88;;
49460;SDS011;35355;49.198;-0.368;2023-02-28T09:16:18;12.00;;;5.90;;
49460;SDS011;35355;49.198;-0.368;2023-02-28T09:18:44;12.85;;;5.75;;
49460;SDS011;35355;49.198;-0.368;2023-02-28T09:21:14;15.30;;;6.13;;
49460;SDS011;35355;49.198;-0.368;2023-02-28T09:23:42;11.18;;;5.35;;
49460;SDS011;35355;49.198;-0.368;2023-02-28T09:26:12;11.95;;;6.25;;
49460;SDS011;35355;49.198;-0.368;2023-02-28T09:28:42;8.63;;;4.95;;
49460;SDS011;35355;49.198;-0.368;2023-02-28T09:31:10;9.65;;;4.90;;
49460;SDS011;35355;49.198;-0.368;2023-02-28T09:33:38;7.80;;;4.45;;
49460;SDS011;35355;49.198;-0.368;2023-02-28T09:36:04;8.95;;;3.85;;
49460;SDS011;35355;49.198;-0.368;2023-02-28T09:38:30;7.13;;;3.28;;
49460;SDS011;35355;49.198;-0.368;2023-02-28T09:40:56;6.78;;;2.97;;
49460;SDS011;35355;49.198;-0.368;2023-02-28T09:43:24;7.45;;;2.53;;
49460;SDS011;35355;49.198;-0.368;2023-02-28T09:45:58;5.95;;;2.55;;
49460;SDS011;35355;49.198;-0.368;2023-02-28T09:48:35;7.13;;;2.20;;
49460;SDS011;35355;49.198;-0.368;2023-02-28T09:51:09;3.65;;;1.85;;
49460;SDS011;35355;49.198;-0.368;2023-02-28T09:53:47;7.70;;;2.50;;
49460;SDS011;35355;49.198;-0.368;2023-02-28T09:56:36;4.47;;;2.20;;
49460;SDS011;35355;49.198;-0.368;2023-02-28T10:07:14;6.93;;;2.63;;
49460;SDS011;35355;49.198;-0.368;2023-02-28T10:09:48;6.50;;;2.45;;
49460;SDS011;35355;49.198;-0.368;2023-02-28T10:12:18;5.10;;;2.55;;
49460;SDS011;35355;49.198;-0.368;2023-02-28T10:14:45;8.15;;;2.90;;
49460;SDS011;35355;49.198;-0.368;2023-02-28T10:17:15;5.22;;;2.97;;
49460;SDS011;35355;49.198;-0.368;2023-02-28T10:19:51;4.38;;;2.72;;
49460;SDS011;35355;49.198;-0.368;2023-02-28T10:24:53;4.15;;;2.22;;
49460;SDS011;35355;49.198;-0.368;2023-02-28T10:27:25;5.05;;;2.72;;
49460;SDS011;35355;49.198;-0.368;2023-02-28T10:29:57;4.47;;;2.88;;
49460;SDS011;35355;49.198;-0.368;2023-02-28T10:35:09;4.27;;;2.40;;
49460;SDS011;35355;49.198;-0.368;2023-02-28T10:37:41;4.95;;;2.55;;
49460;SDS011;35355;49.198;-0.368;2023-02-28T10:42:42;8.10;;;2.55;;
49460;SDS011;35355;49.198;-0.368;2023-02-28T10:45:19;6.55;;;3.22;;
49460;SDS011;35355;49.198;-0.368;2023-02-28T10:47:58;6.45;;;2.30;;
49460;SDS011;35355;49.198;-0.368;2023-02-28T10:53:14;7.90;;;3.25;;
49460;SDS011;35355;49.198;-0.368;2023-02-28T10:55:40;10.98;;;2.70;;
49460;SDS011;35355;49.198;-0.368;2023-02-28T10:58:19;5.13;;;3.00;;
49460;SDS011;35355;49.198;-0.368;2023-02-28T11:00:47;5.97;;;2.63;;
49460;SDS011;35355;49.198;-0.368;2023-02-28T11:03:23;8.13;;;2.65;;
49460;SDS011;35355;49.198;-0.368;2023-02-28T11:06:04;5.22;;;3.10;;
49460;SDS011;35355;49.198;-0.368;2023-02-28T11:08:32;5.47;;;3.08;;
49460;SDS011;35355;49.198;-0.368;2023-02-28T11:10:59;5.03;;;3.00;;
49460;SDS011;35355;49.198;-0.368;2023-02-28T11:13:31;6.47;;;3.53;;
49460;SDS011;35355;49.198;-0.368;2023-02-28T11:15:59;7.80;;;3.67;;
49460;SDS011;35355;49.198;-0.368;2023-02-28T11:18:29;7.47;;;3.33;;
49460;SDS011;35355;49.198;-0.368;2023-02-28T11:21:01;9.15;;;3.28;;
49460;SDS011;35355;49.198;-0.368;2023-02-28T11:23:29;7.20;;;2.83;;
49460;SDS011;35355;49.198;-0.368;2023-02-28T11:25:58;9.15;;;2.58;;
49460;SDS011;35355;49.198;-0.368;2023-02-28T11:28:33;5.00;;;3.13;;
49460;SDS011;35355;49.198;-0.368;2023-02-28T11:31:01;6.40;;;2.78;;
49460;SDS011;35355;49.198;-0.368;2023-02-28T11:33:31;6.72;;;3.08;;
49460;SDS011;35355;49.198;-0.368;2023-02-28T11:36:10;16.73;;;3.30;;
49460;SDS011;35355;49.198;-0.368;2023-02-28T11:38:38;5.32;;;2.78;;
49460;SDS011;35355;49.198;-0.368;2023-02-28T11:46:17;5.97;;;2.35;;
49460;SDS011;35355;49.198;-0.368;2023-02-28T11:53:50;7.72;;;2.92;;
49460;SDS011;35355;49.198;-0.368;2023-02-28T11:56:29;4.88;;;2.83;;
49460;SDS011;35355;49.198;-0.368;2023-02-28T12:04:57;6.57;;;3.35;;
49460;SDS011;35355;49.198;-0.368;2023-02-28T12:10:13;8.82;;;4.03;;
49460;SDS011;35355;49.198;-0.368;2023-02-28T12:15:18;10.68;;;4.53;;
49460;SDS011;35355;49.198;-0.368;2023-02-28T12:18:00;6.55;;;3.40;;
49460;SDS011;35355;49.198;-0.368;2023-02-28T12:26:26;8.20;;;3.72;;
49460;SDS011;35355;49.198;-0.368;2023-02-28T12:29:01;9.60;;;4.88;;
49460;SDS011;35355;49.198;-0.368;2023-02-28T12:31:36;9.45;;;4.00;;
49460;SDS011;35355;49.198;-0.368;2023-02-28T12:34:16;8.45;;;3.65;;
49460;SDS011;35355;49.198;-0.368;2023-02-28T12:36:46;8.20;;;3.17;;
49460;SDS011;35355;49.198;-0.368;2023-02-28T12:41:41;6.47;;;3.40;;
49460;SDS011;35355;49.198;-0.368;2023-02-28T12:44:16;9.02;;;3.10;;
49460;SDS011;35355;49.198;-0.368;2023-02-28T12:46:47;11.93;;;3.78;;
49460;SDS011;35355;49.198;-0.368;2023-02-28T12:49:17;7.07;;;3.55;;
49460;SDS011;35355;49.198;-0.368;2023-02-28T12:51:46;11.13;;;3.90;;
49460;SDS011;35355;49.198;-0.368;2023-02-28T12:54:16;7.22;;;3.65;;
49460;SDS011;35355;49.198;-0.368;2023-02-28T12:57:03;6.30;;;4.05;;
49460;SDS011;35355;49.198;-0.368;2023-02-28T12:59:38;10.45;;;4.30;;
49460;SDS011;35355;49.198;-0.368;2023-02-28T13:08:13;11.35;;;4.82;;
49460;SDS011;35355;49.198;-0.368;2023-02-28T13:11:01;13.73;;;4.82;;
49460;SDS011;35355;49.198;-0.368;2023-02-28T13:13:27;8.13;;;4.57;;
49460;SDS011;35355;49.198;-0.368;2023-02-28T13:15:58;11.40;;;5.20;;
49460;SDS011;35355;49.198;-0.368;2023-02-28T13:20:57;9.90;;;4.70;;
49460;SDS011;35355;49.198;-0.368;2023-02-28T13:26:06;11.68;;;4.35;;
49460;SDS011;35355;49.198;-0.368;2023-02-28T13:31:15;8.75;;;4.82;;
49460;SDS011;35355;49.198;-0.368;2023-02-28T13:44:03;14.25;;;5.90;;
49460;SDS011;35355;49.198;-0.368;2023-02-28T13:51:51;11.70;;;5.75;;
49460;SDS011;35355;49.198;-0.368;2023-02-28T13:59:46;11.68;;;5.22;;
49460;SDS011;35355;49.198;-0.368;2023-02-28T14:20:18;16.25;;;7.03;;
49460;SDS011;35355;49.198;-0.368;2023-02-28T14:22:57;11.15;;;6.45;;
49460;SDS011;35355;49.198;-0.368;2023-02-28T14:25:52;14.38;;;7.70;;
49460;SDS011;35355;49.198;-0.368;2023-02-28T14:31:41;12.98;;;7.50;;
49460;SDS011;35355;49.198;-0.368;2023-02-28T14:36:39;13.90;;;7.22;;
49460;SDS011;35355;49.198;-0.368;2023-02-28T14:39:10;11.35;;;7.55;;
49460;SDS011;35355;49.198;-0.368;2023-02-28T14:41:39;12.00;;;7.93;;
49460;SDS011;35355;49.198;-0.368;2023-02-28T14:46:46;13.07;;;7.20;;
49460;SDS011;35355;49.198;-0.368;2023-02-28T14:51:49;16.63;;;9.77;;
49460;SDS011;35355;49.198;-0.368;2023-02-28T14:54:26;14.90;;;9.93;;
49460;SDS011;35355;49.198;-0.368;2023-02-28T14:56:51;22.92;;;14.05;;
49460;SDS011;35355;49.198;-0.368;2023-02-28T14:59:28;16.70;;;10.07;;
49460;SDS011;35355;49.198;-0.368;2023-02-28T15:07:07;11.07;;;6.82;;
49460;SDS011;35355;49.198;-0.368;2023-02-28T15:09:38;14.13;;;8.18;;
49460;SDS011;35355;49.198;-0.368;2023-02-28T15:12:03;15.90;;;7.95;;
49460;SDS011;35355;49.198;-0.368;2023-02-28T15:14:29;15.50;;;8.38;;
49460;SDS011;35355;49.198;-0.368;2023-02-28T15:16:59;15.45;;;9.40;;
49460;SDS011;35355;49.198;-0.368;2023-02-28T15:19:31;16.77;;;8.27;;
49460;SDS011;35355;49.198;-0.368;2023-02-28T15:22:03;14.50;;;9.35;;
49460;SDS011;35355;49.198;-0.368;2023-02-28T15:24:37;15.57;;;8.77;;
49460;SDS011;35355;49.198;-0.368;2023-02-28T15:27:22;12.30;;;8.20;;
49460;SDS011;35355;49.198;-0.368;2023-02-28T15:29:54;16.83;;;10.05;;
49460;SDS011;35355;49.198;-0.368;2023-02-28T15:32:24;13.88;;;7.85;;
49460;SDS011;35355;49.198;-0.368;2023-02-28T15:34:51;11.30;;;7.30;;
49460;SDS011;35355;49.198;-0.368;2023-02-28T15:42:37;10.80;;;6.28;;
49460;SDS011;35355;49.198;-0.368;2023-02-28T15:45:03;9.57;;;6.18;;
49460;SDS011;35355;49.198;-0.368;2023-02-28T15:47:29;12.00;;;6.72;;
49460;SDS011;35355;49.198;-0.368;2023-02-28T15:52:38;12.52;;;7.70;;
49460;SDS011;35355;49.198;-0.368;2023-02-28T15:55:10;12.63;;;7.38;;
49460;SDS011;35355;49.198;-0.368;2023-02-28T15:57:54;12.30;;;8.30;;
49460;SDS011;35355;49.198;-0.368;2023-02-28T16:00:24;10.40;;;7.00;;
49460;SDS011;35355;49.198;-0.368;2023-02-28T16:02:51;11.90;;;7.47;;
49460;SDS011;35355;49.198;-0.368;2023-02-28T16:05:21;14.60;;;8.05;;
49460;SDS011;35355;49.198;-0.368;2023-02-28T16:08:00;13.90;;;7.90;;
49460;SDS011;35355;49.198;-0.368;2023-02-28T16:10:35;13.40;;;8.07;;
49460;SDS011;35355;49.198;-0.368;2023-02-28T16:13:01;13.82;;;8.60;;
49460;SDS011;35355;49.198;-0.368;2023-02-28T16:15:28;15.70;;;8.05;;
49460;SDS011;35355;49.198;-0.368;2023-02-28T16:18:07;11.45;;;7.20;;
49460;SDS011;35355;49.198;-0.368;2023-02-28T16:20:37;10.65;;;6.35;;
49460;SDS011;35355;49.198;-0.368;2023-02-28T16:23:02;13.93;;;7.28;;
49460;SDS011;35355;49.198;-0.368;2023-02-28T16:25:37;12.57;;;7.28;;
49460;SDS011;35355;49.198;-0.368;2023-02-28T16:28:06;13.45;;;7.90;;
49460;SDS011;35355;49.198;-0.368;2023-02-28T16:30:51;12.85;;;8.32;;
49460;SDS011;35355;49.198;-0.368;2023-02-28T16:33:17;15.25;;;9.55;;
49460;SDS011;35355;49.198;-0.368;2023-02-28T16:35:43;18.83;;;9.65;;
49460;SDS011;35355;49.198;-0.368;2023-02-28T16:38:08;14.65;;;8.95;;
49460;SDS011;35355;49.198;-0.368;2023-02-28T16:40:35;17.30;;;10.68;;
49460;SDS011;35355;49.198;-0.368;2023-02-28T16:43:01;17.63;;;11.25;;
49460;SDS011;35355;49.198;-0.368;2023-02-28T16:45:32;17.65;;;10.55;;
49460;SDS011;35355;49.198;-0.368;2023-02-28T16:47:58;19.70;;;11.02;;
49460;SDS011;35355;49.198;-0.368;2023-02-28T16:50:27;20.02;;;10.98;;
49460;SDS011;35355;49.198;-0.368;2023-02-28T16:52:54;17.88;;;9.95;;
49460;SDS011;35355;49.198;-0.368;2023-02-28T16:55:20;19.90;;;10.43;;
49460;SDS011;35355;49.198;-0.368;2023-02-28T16:57:48;18.75;;;11.23;;
49460;SDS011;35355;49.198;-0.368;2023-02-28T17:00:19;23.77;;;11.38;;
49460;SDS011;35355;49.198;-0.368;2023-02-28T17:02:45;23.55;;;12.75;;
49460;SDS011;35355;49.198;-0.368;2023-02-28T17:05:11;27.17;;;13.15;;
49460;SDS011;35355;49.198;-0.368;2023-02-28T17:07:37;24.15;;;11.75;;
49460;SDS011;35355;49.198;-0.368;2023-02-28T17:10:10;23.27;;;11.88;;
49460;SDS011;35355;49.198;-0.368;2023-02-28T17:12:36;22.25;;;11.15;;
49460;SDS011;35355;49.198;-0.368;2023-02-28T17:15:01;24.13;;;9.40;;
49460;SDS011;35355;49.198;-0.368;2023-02-28T17:17:27;21.15;;;11.57;;
49460;SDS011;35355;49.198;-0.368;2023-02-28T17:19:54;19.80;;;9.88;;
49460;SDS011;35355;49.198;-0.368;2023-02-28T17:22:19;16.80;;;10.10;;
49460;SDS011;35355;49.198;-0.368;2023-02-28T17:24:45;19.65;;;9.73;;
49460;SDS011;35355;49.198;-0.368;2023-02-28T17:27:13;18.05;;;9.70;;
49460;SDS011;35355;49.198;-0.368;2023-02-28T17:29:38;17.42;;;9.90;;
49460;SDS011;35355;49.198;-0.368;2023-02-28T17:32:04;21.33;;;9.80;;
49460;SDS011;35355;49.198;-0.368;2023-02-28T17:34:30;19.02;;;9.65;;
49460;SDS011;35355;49.198;-0.368;2023-02-28T17:36:55;24.73;;;11.75;;
49460;SDS011;35355;49.198;-0.368;2023-02-28T17:39:20;20.27;;;11.18;;